Airfield :
LOGIN :

Register | Disclaimer

   EN    FR    IT 

 










Legend :    VFR   Marginal VFR   IFR   Intensive IFR   Very Intensive IFR
Visi :
Ceiling :
>= 8 km
>= 3000ft
5 to 8 km
1000 to 3000 ft
1500m to 5 km
500 to 1000 ft
800 to 1500m
200 to 500 ft
< 800m
< 200 ft
Symbols :   Thunderstorms  Fog  Heavy snow  Heavy precipitations  Wind > 20 kt
SIGMETs :     Misc.  Thunderstorms  Icing  Turbulence  Mountain Waves  Volcanic Ashes







- Airport Elevation : 324 ft
- IATA code : KVB


ESGR - Skovde

CURRENT METAR :
  • 221750Z AUTO 18003KT 8000 RA OVC094/// 16/16 Q1009

EXPIRED METARs :
  • 221720Z AUTO VRB03KT 5000 -RA OVC094/// 16/16 Q1009
  • 221650Z AUTO VRB02KT 7000 RA OVC094/// 16/15 Q1009
  • 221620Z 18006KT 4000 +RA FEW032 SCT051 OVC094 16/15 Q1009 RESHRA
  • 221550Z 18011KT 160V240 9999 RA SCT053 BKN068 OVC094 17/15 Q1010 RERA
  • 221520Z 10006KT 010V150 8000 +RA BKN051CB 17/14 Q1009

TAF N/A
No reported NOTAMs for that airfield.



MET'MAP, your aeronautical weather chart ! - Copyright ORBIFLY December 2007 - Disclaimer

ORBIFLY MET'MAP TEAM :

Programming & Development : Alexandra Zaïnal
Concept & Development : Baudouin d'Aumeries
Co-Development & Prog : Marc-Olivier Méhu
Technical & hardware support : Manuel Goepfert

Contact : metmap@orbifly.com




SOURCES & CREDITS :

   NOAA